sensor_id;sensor_type;location;lat;lon;timestamp;temperature;humidity
8459;DHT22;4266;48.816;9.154;2023-04-06T00:02:18;0.10;86.90
8459;DHT22;4266;48.816;9.154;2023-04-06T00:04:44;0.00;85.90
8459;DHT22;4266;48.816;9.154;2023-04-06T00:07:10;0.10;85.20
8459;DHT22;4266;48.816;9.154;2023-04-06T00:09:36;0.10;85.10
8459;DHT22;4266;48.816;9.154;2023-04-06T00:12:01;0.10;84.70
8459;DHT22;4266;48.816;9.154;2023-04-06T00:14:27;0.10;83.80
8459;DHT22;4266;48.816;9.154;2023-04-06T00:16:53;0.10;83.30
8459;DHT22;4266;48.816;9.154;2023-04-06T00:19:19;0.20;82.00
8459;DHT22;4266;48.816;9.154;2023-04-06T00:21:44;0.20;82.90
8459;DHT22;4266;48.816;9.154;2023-04-06T00:24:11;0.10;85.10
8459;DHT22;4266;48.816;9.154;2023-04-06T00:26:36;0.10;85.00
8459;DHT22;4266;48.816;9.154;2023-04-06T00:29:03;0.10;87.60
8459;DHT22;4266;48.816;9.154;2023-04-06T00:31:29;0.10;87.60
8459;DHT22;4266;48.816;9.154;2023-04-06T00:33:54;0.10;87.70
8459;DHT22;4266;48.816;9.154;2023-04-06T00:36:20;0.00;87.80
8459;DHT22;4266;48.816;9.154;2023-04-06T00:38:46;-0.10;88.40
8459;DHT22;4266;48.816;9.154;2023-04-06T00:41:11;-0.10;89.50
8459;DHT22;4266;48.816;9.154;2023-04-06T00:43:37;0.00;89.80
8459;DHT22;4266;48.816;9.154;2023-04-06T00:46:03;0.00;89.90
8459;DHT22;4266;48.816;9.154;2023-04-06T00:48:29;0.00;89.20
8459;DHT22;4266;48.816;9.154;2023-04-06T00:50:54;0.10;89.10
8459;DHT22;4266;48.816;9.154;2023-04-06T00:53:20;0.10;88.40
8459;DHT22;4266;48.816;9.154;2023-04-06T00:55:46;0.10;87.80
8459;DHT22;4266;48.816;9.154;2023-04-06T00:58:11;0.20;87.40
8459;DHT22;4266;48.816;9.154;2023-04-06T01:00:38;0.20;86.00
8459;DHT22;4266;48.816;9.154;2023-04-06T01:03:05;0.00;86.00
8459;DHT22;4266;48.816;9.154;2023-04-06T01:05:33;0.00;86.00
8459;DHT22;4266;48.816;9.154;2023-04-06T01:07:56;0.10;85.40
8459;DHT22;4266;48.816;9.154;2023-04-06T01:10:24;0.10;85.10
8459;DHT22;4266;48.816;9.154;2023-04-06T01:12:49;0.00;85.40
8459;DHT22;4266;48.816;9.154;2023-04-06T01:15:14;0.00;85.50
8459;DHT22;4266;48.816;9.154;2023-04-06T01:17:40;0.10;85.20
8459;DHT22;4266;48.816;9.154;2023-04-06T01:20:07;0.00;85.20
8459;DHT22;4266;48.816;9.154;2023-04-06T01:22:32;0.10;83.20
8459;DHT22;4266;48.816;9.154;2023-04-06T01:24:58;0.10;83.30
8459;DHT22;4266;48.816;9.154;2023-04-06T01:27:25;0.10;83.50
8459;DHT22;4266;48.816;9.154;2023-04-06T01:29:51;0.10;83.80
8459;DHT22;4266;48.816;9.154;2023-04-06T01:32:17;0.10;83.80
8459;DHT22;4266;48.816;9.154;2023-04-06T01:34:42;0.10;84.10
8459;DHT22;4266;48.816;9.154;2023-04-06T01:37:08;0.00;85.20
8459;DHT22;4266;48.816;9.154;2023-04-06T01:39:34;0.00;86.20
8459;DHT22;4266;48.816;9.154;2023-04-06T01:42:00;-0.10;87.90
8459;DHT22;4266;48.816;9.154;2023-04-06T01:44:26;-0.20;88.70
8459;DHT22;4266;48.816;9.154;2023-04-06T01:46:52;-0.20;88.60
8459;DHT22;4266;48.816;9.154;2023-04-06T01:49:17;-0.20;90.10
8459;DHT22;4266;48.816;9.154;2023-04-06T01:51:43;-0.20;90.20
8459;DHT22;4266;48.816;9.154;2023-04-06T01:54:09;-0.20;90.30
8459;DHT22;4266;48.816;9.154;2023-04-06T01:56:35;-0.20;90.40
8459;DHT22;4266;48.816;9.154;2023-04-06T01:59:02;-0.30;90.40
8459;DHT22;4266;48.816;9.154;2023-04-06T02:01:28;-0.30;90.30
8459;DHT22;4266;48.816;9.154;2023-04-06T02:03:54;-0.40;90.50
8459;DHT22;4266;48.816;9.154;2023-04-06T02:06:22;-0.50;90.70
8459;DHT22;4266;48.816;9.154;2023-04-06T02:08:48;-0.50;90.70
8459;DHT22;4266;48.816;9.154;2023-04-06T02:11:13;-0.40;91.00
8459;DHT22;4266;48.816;9.154;2023-04-06T02:13:39;-0.40;91.00
8459;DHT22;4266;48.816;9.154;2023-04-06T02:16:05;-0.50;91.40
8459;DHT22;4266;48.816;9.154;2023-04-06T02:18:31;-0.40;91.00
8459;DHT22;4266;48.816;9.154;2023-04-06T02:20:57;-0.60;91.60
8459;DHT22;4266;48.816;9.154;2023-04-06T02:23:24;-0.60;92.00
8459;DHT22;4266;48.816;9.154;2023-04-06T02:25:49;-0.70;91.90
8459;DHT22;4266;48.816;9.154;2023-04-06T02:28:16;-0.70;91.90
8459;DHT22;4266;48.816;9.154;2023-04-06T02:30:42;-0.60;92.00
8459;DHT22;4266;48.816;9.154;2023-04-06T02:33:08;-0.70;91.90
8459;DHT22;4266;48.816;9.154;2023-04-06T02:35:34;-0.70;91.20
8459;DHT22;4266;48.816;9.154;2023-04-06T02:38:00;-0.70;91.20
8459;DHT22;4266;48.816;9.154;2023-04-06T02:40:26;-0.60;91.40
8459;DHT22;4266;48.816;9.154;2023-04-06T02:42:52;-0.70;91.30
8459;DHT22;4266;48.816;9.154;2023-04-06T02:45:18;-0.70;91.60
8459;DHT22;4266;48.816;9.154;2023-04-06T02:47:44;-0.70;91.80
8459;DHT22;4266;48.816;9.154;2023-04-06T02:50:10;-0.80;91.80
8459;DHT22;4266;48.816;9.154;2023-04-06T02:52:36;-0.80;91.80
8459;DHT22;4266;48.816;9.154;2023-04-06T02:55:02;-0.70;92.00
8459;DHT22;4266;48.816;9.154;2023-04-06T02:57:27;-0.80;91.70
8459;DHT22;4266;48.816;9.154;2023-04-06T02:59:53;-0.80;91.50
8459;DHT22;4266;48.816;9.154;2023-04-06T03:02:19;-0.80;91.80
8459;DHT22;4266;48.816;9.154;2023-04-06T03:04:45;-0.90;92.00
8459;DHT22;4266;48.816;9.154;2023-04-06T03:07:12;-0.90;92.20
8459;DHT22;4266;48.816;9.154;2023-04-06T03:09:37;-0.90;92.20
8459;DHT22;4266;48.816;9.154;2023-04-06T03:12:03;-0.90;92.50
8459;DHT22;4266;48.816;9.154;2023-04-06T03:14:29;-1.00;92.50
8459;DHT22;4266;48.816;9.154;2023-04-06T03:16:55;-0.90;92.00
8459;DHT22;4266;48.816;9.154;2023-04-06T03:19:21;-0.90;91.10
8459;DHT22;4266;48.816;9.154;2023-04-06T03:21:46;-0.90;91.70
8459;DHT22;4266;48.816;9.154;2023-04-06T03:24:12;-0.90;92.60
8459;DHT22;4266;48.816;9.154;2023-04-06T03:26:38;-1.00;92.90
8459;DHT22;4266;48.816;9.154;2023-04-06T03:29:03;-1.00;93.20
8459;DHT22;4266;48.816;9.154;2023-04-06T03:31:29;-1.10;93.60
8459;DHT22;4266;48.816;9.154;2023-04-06T03:33:55;-1.10;93.60
8459;DHT22;4266;48.816;9.154;2023-04-06T03:36:20;-1.10;93.90
8459;DHT22;4266;48.816;9.154;2023-04-06T03:38:46;-1.10;94.50
8459;DHT22;4266;48.816;9.154;2023-04-06T03:41:12;-1.20;94.00
8459;DHT22;4266;48.816;9.154;2023-04-06T03:43:37;-1.20;94.40
8459;DHT22;4266;48.816;9.154;2023-04-06T03:46:04;-1.20;94.30
8459;DHT22;4266;48.816;9.154;2023-04-06T03:48:29;-1.20;94.30
8459;DHT22;4266;48.816;9.154;2023-04-06T03:50:55;-1.20;94.30
8459;DHT22;4266;48.816;9.154;2023-04-06T03:53:22;-1.20;94.10
8459;DHT22;4266;48.816;9.154;2023-04-06T03:55:48;-1.30;93.90
8459;DHT22;4266;48.816;9.154;2023-04-06T03:58:14;-1.30;93.90
8459;DHT22;4266;48.816;9.154;2023-04-06T04:00:40;-1.30;94.20
8459;DHT22;4266;48.816;9.154;2023-04-06T04:03:06;-1.30;94.30
8459;DHT22;4266;48.816;9.154;2023-04-06T04:05:32;-1.40;94.50
8459;DHT22;4266;48.816;9.154;2023-04-06T04:07:58;-1.40;94.50
8459;DHT22;4266;48.816;9.154;2023-04-06T04:10:24;-1.30;94.50
8459;DHT22;4266;48.816;9.154;2023-04-06T04:12:50;-1.30;94.40
8459;DHT22;4266;48.816;9.154;2023-04-06T04:15:16;-1.30;94.20
8459;DHT22;4266;48.816;9.154;2023-04-06T04:17:41;-1.30;93.80
8459;DHT22;4266;48.816;9.154;2023-04-06T04:20:09;-1.40;94.20
8459;DHT22;4266;48.816;9.154;2023-04-06T04:22:35;-1.40;94.20
8459;DHT22;4266;48.816;9.154;2023-04-06T04:25:01;-1.30;94.30
8459;DHT22;4266;48.816;9.154;2023-04-06T04:27:28;-1.30;94.50
8459;DHT22;4266;48.816;9.154;2023-04-06T04:29:53;-1.40;94.40
8459;DHT22;4266;48.816;9.154;2023-04-06T04:32:19;-1.30;94.20
8459;DHT22;4266;48.816;9.154;2023-04-06T04:34:45;-1.40;94.30
8459;DHT22;4266;48.816;9.154;2023-04-06T04:37:10;-1.30;94.40
8459;DHT22;4266;48.816;9.154;2023-04-06T04:39:36;-1.30;94.30
8459;DHT22;4266;48.816;9.154;2023-04-06T04:42:02;-1.30;94.40
8459;DHT22;4266;48.816;9.154;2023-04-06T04:44:28;-1.20;94.60
8459;DHT22;4266;48.816;9.154;2023-04-06T04:46:53;-1.20;94.60
8459;DHT22;4266;48.816;9.154;2023-04-06T04:49:19;-1.20;94.50
8459;DHT22;4266;48.816;9.154;2023-04-06T04:51:45;-1.20;94.80
8459;DHT22;4266;48.816;9.154;2023-04-06T04:54:10;-1.10;94.80
8459;DHT22;4266;48.816;9.154;2023-04-06T04:56:37;-1.10;94.70
8459;DHT22;4266;48.816;9.154;2023-04-06T04:59:02;-1.10;94.70
8459;DHT22;4266;48.816;9.154;2023-04-06T05:01:28;-1.10;94.50
8459;DHT22;4266;48.816;9.154;2023-04-06T05:03:54;-1.00;94.50
8459;DHT22;4266;48.816;9.154;2023-04-06T05:06:20;-0.90;94.30
8459;DHT22;4266;48.816;9.154;2023-04-06T05:08:46;-0.70;94.20
8459;DHT22;4266;48.816;9.154;2023-04-06T05:11:12;-0.70;94.20
8459;DHT22;4266;48.816;9.154;2023-04-06T05:13:37;-0.60;93.90
8459;DHT22;4266;48.816;9.154;2023-04-06T05:16:04;-0.50;93.80
8459;DHT22;4266;48.816;9.154;2023-04-06T05:18:30;-0.10;92.80
8459;DHT22;4266;48.816;9.154;2023-04-06T05:20:56;-0.10;92.80
8459;DHT22;4266;48.816;9.154;2023-04-06T05:23:21;0.10;91.80
8459;DHT22;4266;48.816;9.154;2023-04-06T05:25:47;0.40;91.80
8459;DHT22;4266;48.816;9.154;2023-04-06T05:28:13;0.50;91.90
8459;DHT22;4266;48.816;9.154;2023-04-06T05:30:39;0.90;91.40
8459;DHT22;4266;48.816;9.154;2023-04-06T05:33:05;1.20;90.90
8459;DHT22;4266;48.816;9.154;2023-04-06T05:35:31;1.80;90.40
8459;DHT22;4266;48.816;9.154;2023-04-06T05:37:56;2.20;88.70
8459;DHT22;4266;48.816;9.154;2023-04-06T05:40:22;2.70;86.90
8459;DHT22;4266;48.816;9.154;2023-04-06T05:42:48;3.20;85.20
8459;DHT22;4266;48.816;9.154;2023-04-06T05:45:14;3.70;82.80
8459;DHT22;4266;48.816;9.154;2023-04-06T05:47:39;4.10;80.50
8459;DHT22;4266;48.816;9.154;2023-04-06T05:50:06;4.70;78.20
8459;DHT22;4266;48.816;9.154;2023-04-06T05:52:34;4.80;77.00
8459;DHT22;4266;48.816;9.154;2023-04-06T05:55:00;4.70;76.80
8459;DHT22;4266;48.816;9.154;2023-04-06T05:57:25;5.10;76.10
8459;DHT22;4266;48.816;9.154;2023-04-06T05:59:51;5.50;75.30
8459;DHT22;4266;48.816;9.154;2023-04-06T06:02:17;5.20;74.20
8459;DHT22;4266;48.816;9.154;2023-04-06T06:04:43;5.20;74.10
8459;DHT22;4266;48.816;9.154;2023-04-06T06:07:10;5.40;72.50
8459;DHT22;4266;48.816;9.154;2023-04-06T06:09:36;5.90;71.10
8459;DHT22;4266;48.816;9.154;2023-04-06T06:12:02;5.80;71.00
8459;DHT22;4266;48.816;9.154;2023-04-06T06:14:28;6.20;70.40
8459;DHT22;4266;48.816;9.154;2023-04-06T06:16:54;6.70;67.80
8459;DHT22;4266;48.816;9.154;2023-04-06T06:19:21;6.30;67.80
8459;DHT22;4266;48.816;9.154;2023-04-06T06:21:47;6.30;67.80
8459;DHT22;4266;48.816;9.154;2023-04-06T06:24:13;6.60;66.50
8459;DHT22;4266;48.816;9.154;2023-04-06T06:26:38;6.90;66.00
8459;DHT22;4266;48.816;9.154;2023-04-06T06:32:00;7.60;61.90
8459;DHT22;4266;48.816;9.154;2023-04-06T06:34:26;8.00;60.50
8459;DHT22;4266;48.816;9.154;2023-04-06T06:36:52;8.00;60.40
8459;DHT22;4266;48.816;9.154;2023-04-06T06:39:18;8.00;60.10
8459;DHT22;4266;48.816;9.154;2023-04-06T06:41:43;8.50;58.90
8459;DHT22;4266;48.816;9.154;2023-04-06T06:44:10;9.20;57.50
8459;DHT22;4266;48.816;9.154;2023-04-06T06:46:36;9.20;57.50
8459;DHT22;4266;48.816;9.154;2023-04-06T06:49:03;9.70;56.50
8459;DHT22;4266;48.816;9.154;2023-04-06T06:51:29;9.70;56.40
8459;DHT22;4266;48.816;9.154;2023-04-06T06:53:55;10.00;53.90
8459;DHT22;4266;48.816;9.154;2023-04-06T06:56:21;9.90;55.00
8459;DHT22;4266;48.816;9.154;2023-04-06T06:58:46;10.50;53.60
8459;DHT22;4266;48.816;9.154;2023-04-06T07:01:13;11.00;52.00
8459;DHT22;4266;48.816;9.154;2023-04-06T07:03:39;11.00;51.90
8459;DHT22;4266;48.816;9.154;2023-04-06T07:06:04;11.90;52.50
8459;DHT22;4266;48.816;9.154;2023-04-06T07:08:32;12.70;51.10
8459;DHT22;4266;48.816;9.154;2023-04-06T07:10:59;12.20;49.30
8459;DHT22;4266;48.816;9.154;2023-04-06T07:13:25;12.40;49.20
8459;DHT22;4266;48.816;9.154;2023-04-06T07:15:52;13.00;49.20
8459;DHT22;4266;48.816;9.154;2023-04-06T07:18:18;13.00;49.20
8459;DHT22;4266;48.816;9.154;2023-04-06T07:20:43;14.40;48.80
8459;DHT22;4266;48.816;9.154;2023-04-06T07:23:10;14.40;46.60
8459;DHT22;4266;48.816;9.154;2023-04-06T07:25:35;14.40;46.50
8459;DHT22;4266;48.816;9.154;2023-04-06T07:28:02;13.70;45.60
8459;DHT22;4266;48.816;9.154;2023-04-06T07:30:27;14.10;45.00
8459;DHT22;4266;48.816;9.154;2023-04-06T07:32:52;13.90;45.00
8459;DHT22;4266;48.816;9.154;2023-04-06T07:35:19;14.30;44.80
8459;DHT22;4266;48.816;9.154;2023-04-06T07:37:45;15.00;44.50
8459;DHT22;4266;48.816;9.154;2023-04-06T07:40:12;15.60;43.70
8459;DHT22;4266;48.816;9.154;2023-04-06T07:42:38;15.50;43.60
8459;DHT22;4266;48.816;9.154;2023-04-06T07:45:04;14.70;42.80
8459;DHT22;4266;48.816;9.154;2023-04-06T07:47:30;15.30;43.10
8459;DHT22;4266;48.816;9.154;2023-04-06T07:49:56;16.20;42.60
8459;DHT22;4266;48.816;9.154;2023-04-06T07:52:22;16.60;41.80
8459;DHT22;4266;48.816;9.154;2023-04-06T07:54:48;16.60;41.80
8459;DHT22;4266;48.816;9.154;2023-04-06T07:57:15;17.60;41.30
8459;DHT22;4266;48.816;9.154;2023-04-06T07:59:41;17.60;41.20
8459;DHT22;4266;48.816;9.154;2023-04-06T08:02:06;17.10;41.20
8459;DHT22;4266;48.816;9.154;2023-04-06T08:04:33;17.80;40.80
8459;DHT22;4266;48.816;9.154;2023-04-06T08:06:58;17.80;40.70
8459;DHT22;4266;48.816;9.154;2023-04-06T08:09:24;18.60;40.30
8459;DHT22;4266;48.816;9.154;2023-04-06T08:11:50;18.20;39.50
8459;DHT22;4266;48.816;9.154;2023-04-06T08:14:16;18.50;39.00
8459;DHT22;4266;48.816;9.154;2023-04-06T08:16:41;18.80;39.40
8459;DHT22;4266;48.816;9.154;2023-04-06T08:19:08;18.70;37.90
8459;DHT22;4266;48.816;9.154;2023-04-06T08:21:33;18.70;37.90
8459;DHT22;4266;48.816;9.154;2023-04-06T08:23:59;18.10;37.70
8459;DHT22;4266;48.816;9.154;2023-04-06T08:26:25;19.40;37.60
8459;DHT22;4266;48.816;9.154;2023-04-06T08:28:50;21.20;37.60
8459;DHT22;4266;48.816;9.154;2023-04-06T08:31:16;19.90;37.90
8459;DHT22;4266;48.816;9.154;2023-04-06T08:33:43;19.60;36.80
8459;DHT22;4266;48.816;9.154;2023-04-06T08:36:12;19.50;35.90
8459;DHT22;4266;48.816;9.154;2023-04-06T08:38:37;19.50;35.90
8459;DHT22;4266;48.816;9.154;2023-04-06T08:41:10;20.20;35.80
8459;DHT22;4266;48.816;9.154;2023-04-06T08:43:47;20.20;35.80
8459;DHT22;4266;48.816;9.154;2023-04-06T08:46:12;21.10;36.40
8459;DHT22;4266;48.816;9.154;2023-04-06T08:48:39;21.10;34.70
8459;DHT22;4266;48.816;9.154;2023-04-06T08:51:05;20.90;35.10
8459;DHT22;4266;48.816;9.154;2023-04-06T08:53:30;20.30;33.40
8459;DHT22;4266;48.816;9.154;2023-04-06T08:55:56;21.20;33.80
8459;DHT22;4266;48.816;9.154;2023-04-06T08:58:22;22.20;33.10
8459;DHT22;4266;48.816;9.154;2023-04-06T09:00:48;22.10;33.10
8459;DHT22;4266;48.816;9.154;2023-04-06T09:03:14;22.20;33.40
8459;DHT22;4266;48.816;9.154;2023-04-06T09:05:39;21.70;32.70
8459;DHT22;4266;48.816;9.154;2023-04-06T09:08:05;23.10;33.20
8459;DHT22;4266;48.816;9.154;2023-04-06T09:10:32;22.10;31.40
8459;DHT22;4266;48.816;9.154;2023-04-06T09:13:05;22.10;31.40
8459;DHT22;4266;48.816;9.154;2023-04-06T09:15:28;23.10;32.00
8459;DHT22;4266;48.816;9.154;2023-04-06T09:17:53;23.20;31.80
8459;DHT22;4266;48.816;9.154;2023-04-06T09:20:23;24.20;32.10
8459;DHT22;4266;48.816;9.154;2023-04-06T09:22:48;23.60;30.60
8459;DHT22;4266;48.816;9.154;2023-04-06T09:25:18;23.60;30.30
8459;DHT22;4266;48.816;9.154;2023-04-06T09:27:40;22.90;29.80
8459;DHT22;4266;48.816;9.154;2023-04-06T09:30:07;22.90;30.00
8459;DHT22;4266;48.816;9.154;2023-04-06T09:32:32;22.70;30.10
8459;DHT22;4266;48.816;9.154;2023-04-06T09:35:06;23.10;30.30
8459;DHT22;4266;48.816;9.154;2023-04-06T09:37:31;23.60;29.80
8459;DHT22;4266;48.816;9.154;2023-04-06T09:40:04;22.20;30.20
8459;DHT22;4266;48.816;9.154;2023-04-06T09:42:30;21.70;29.50
8459;DHT22;4266;48.816;9.154;2023-04-06T09:44:56;22.50;30.00
8459;DHT22;4266;48.816;9.154;2023-04-06T09:47:21;23.60;30.20
8459;DHT22;4266;48.816;9.154;2023-04-06T09:49:47;23.40;29.70
8459;DHT22;4266;48.816;9.154;2023-04-06T09:52:13;23.30;29.40
8459;DHT22;4266;48.816;9.154;2023-04-06T09:54:38;22.50;29.50
8459;DHT22;4266;48.816;9.154;2023-04-06T09:57:07;23.50;29.10
8459;DHT22;4266;48.816;9.154;2023-04-06T09:59:50;23.50;29.10
8459;DHT22;4266;48.816;9.154;2023-04-06T10:02:32;21.90;29.40
8459;DHT22;4266;48.816;9.154;2023-04-06T10:04:56;23.10;29.30
8459;DHT22;4266;48.816;9.154;2023-04-06T10:07:19;24.30;29.60
8459;DHT22;4266;48.816;9.154;2023-04-06T10:09:45;24.20;29.20
8459;DHT22;4266;48.816;9.154;2023-04-06T10:12:11;23.90;28.80
8459;DHT22;4266;48.816;9.154;2023-04-06T10:14:37;23.90;28.80
8459;DHT22;4266;48.816;9.154;2023-04-06T10:17:04;23.90;28.80
8459;DHT22;4266;48.816;9.154;2023-04-06T10:19:32;24.00;28.60
8459;DHT22;4266;48.816;9.154;2023-04-06T10:21:55;22.80;28.10
8459;DHT22;4266;48.816;9.154;2023-04-06T10:24:20;24.80;29.40
8459;DHT22;4266;48.816;9.154;2023-04-06T10:26:58;26.30;29.20
8459;DHT22;4266;48.816;9.154;2023-04-06T10:29:23;26.10;28.50
8459;DHT22;4266;48.816;9.154;2023-04-06T10:31:50;25.60;28.70
8459;DHT22;4266;48.816;9.154;2023-04-06T10:34:15;25.50;28.60
8459;DHT22;4266;48.816;9.154;2023-04-06T10:36:41;24.80;28.60
8459;DHT22;4266;48.816;9.154;2023-04-06T10:39:07;23.60;27.70
8459;DHT22;4266;48.816;9.154;2023-04-06T10:41:41;23.40;28.00
8459;DHT22;4266;48.816;9.154;2023-04-06T10:44:02;23.80;28.10
8459;DHT22;4266;48.816;9.154;2023-04-06T10:46:29;25.00;28.50
8459;DHT22;4266;48.816;9.154;2023-04-06T10:48:55;25.10;28.20
8459;DHT22;4266;48.816;9.154;2023-04-06T10:51:23;25.10;28.20
8459;DHT22;4266;48.816;9.154;2023-04-06T10:53:47;25.20;28.10
8459;DHT22;4266;48.816;9.154;2023-04-06T10:56:13;23.20;28.10
8459;DHT22;4266;48.816;9.154;2023-04-06T10:58:44;24.20;28.20
8459;DHT22;4266;48.816;9.154;2023-04-06T11:01:09;24.20;28.20
8459;DHT22;4266;48.816;9.154;2023-04-06T11:03:42;24.00;27.60
8459;DHT22;4266;48.816;9.154;2023-04-06T11:06:01;23.00;27.10
8459;DHT22;4266;48.816;9.154;2023-04-06T11:08:30;23.60;27.70
8459;DHT22;4266;48.816;9.154;2023-04-06T11:11:04;23.60;27.70
8459;DHT22;4266;48.816;9.154;2023-04-06T11:14:09;23.10;27.40
8459;DHT22;4266;48.816;9.154;2023-04-06T11:16:21;23.30;27.90
8459;DHT22;4266;48.816;9.154;2023-04-06T11:18:54;24.60;27.80
8459;DHT22;4266;48.816;9.154;2023-04-06T11:21:20;25.10;28.20
8459;DHT22;4266;48.816;9.154;2023-04-06T11:23:45;24.30;27.10
8459;DHT22;4266;48.816;9.154;2023-04-06T11:26:12;23.60;26.90
8459;DHT22;4266;48.816;9.154;2023-04-06T11:28:37;24.60;27.40
8459;DHT22;4266;48.816;9.154;2023-04-06T11:31:03;25.10;27.70
8459;DHT22;4266;48.816;9.154;2023-04-06T11:33:29;23.60;26.90
8459;DHT22;4266;48.816;9.154;2023-04-06T11:35:57;23.40;26.90
8459;DHT22;4266;48.816;9.154;2023-04-06T11:38:22;23.40;26.90
8459;DHT22;4266;48.816;9.154;2023-04-06T11:40:52;24.50;27.20
8459;DHT22;4266;48.816;9.154;2023-04-06T11:43:14;24.10;27.50
8459;DHT22;4266;48.816;9.154;2023-04-06T11:45:41;23.10;26.70
8459;DHT22;4266;48.816;9.154;2023-04-06T11:48:16;23.00;27.20
8459;DHT22;4266;48.816;9.154;2023-04-06T11:50:34;23.70;27.70
8459;DHT22;4266;48.816;9.154;2023-04-06T11:53:00;23.80;27.80
8459;DHT22;4266;48.816;9.154;2023-04-06T11:55:26;24.80;27.70
8459;DHT22;4266;48.816;9.154;2023-04-06T11:57:51;24.40;27.10
8459;DHT22;4266;48.816;9.154;2023-04-06T12:00:18;24.10;26.80
8459;DHT22;4266;48.816;9.154;2023-04-06T12:02:46;23.00;27.50
8459;DHT22;4266;48.816;9.154;2023-04-06T12:05:12;22.80;27.40
8459;DHT22;4266;48.816;9.154;2023-04-06T12:07:37;22.80;27.40
8459;DHT22;4266;48.816;9.154;2023-04-06T12:10:04;23.00;27.10
8459;DHT22;4266;48.816;9.154;2023-04-06T12:12:30;24.10;27.70
8459;DHT22;4266;48.816;9.154;2023-04-06T12:14:56;23.80;27.20
8459;DHT22;4266;48.816;9.154;2023-04-06T12:17:22;23.80;26.80
8459;DHT22;4266;48.816;9.154;2023-04-06T12:19:48;23.80;26.80
8459;DHT22;4266;48.816;9.154;2023-04-06T12:22:13;23.80;26.80
8459;DHT22;4266;48.816;9.154;2023-04-06T12:24:39;23.00;26.50
8459;DHT22;4266;48.816;9.154;2023-04-06T12:27:05;23.70;27.40
8459;DHT22;4266;48.816;9.154;2023-04-06T12:29:30;24.10;27.60
8459;DHT22;4266;48.816;9.154;2023-04-06T12:31:56;22.80;27.00
8459;DHT22;4266;48.816;9.154;2023-04-06T12:34:22;23.40;26.70
8459;DHT22;4266;48.816;9.154;2023-04-06T12:36:48;22.70;26.70
8459;DHT22;4266;48.816;9.154;2023-04-06T12:39:13;22.10;26.60
8459;DHT22;4266;48.816;9.154;2023-04-06T12:41:40;23.50;26.80
8459;DHT22;4266;48.816;9.154;2023-04-06T12:44:07;22.70;26.80
8459;DHT22;4266;48.816;9.154;2023-04-06T12:46:33;22.70;26.80
8459;DHT22;4266;48.816;9.154;2023-04-06T12:48:58;22.60;27.30
8459;DHT22;4266;48.816;9.154;2023-04-06T12:51:26;21.70;26.70
8459;DHT22;4266;48.816;9.154;2023-04-06T12:53:50;21.00;26.40
8459;DHT22;4266;48.816;9.154;2023-04-06T12:56:16;21.20;26.80
8459;DHT22;4266;48.816;9.154;2023-04-06T12:58:41;21.30;26.60
8459;DHT22;4266;48.816;9.154;2023-04-06T13:01:08;22.50;27.80
8459;DHT22;4266;48.816;9.154;2023-04-06T13:03:33;22.40;27.80
8459;DHT22;4266;48.816;9.154;2023-04-06T13:05:59;22.70;27.70
8459;DHT22;4266;48.816;9.154;2023-04-06T13:08:25;22.90;28.10
8459;DHT22;4266;48.816;9.154;2023-04-06T13:10:51;22.80;28.10
8459;DHT22;4266;48.816;9.154;2023-04-06T13:13:16;21.90;27.90
8459;DHT22;4266;48.816;9.154;2023-04-06T13:15:43;20.00;26.70
8459;DHT22;4266;48.816;9.154;2023-04-06T13:18:08;19.90;26.60
8459;DHT22;4266;48.816;9.154;2023-04-06T13:20:34;19.50;27.00
8459;DHT22;4266;48.816;9.154;2023-04-06T13:23:00;19.50;26.70
8459;DHT22;4266;48.816;9.154;2023-04-06T13:25:25;19.00;26.70
8459;DHT22;4266;48.816;9.154;2023-04-06T13:27:51;19.00;27.10
8459;DHT22;4266;48.816;9.154;2023-04-06T13:30:17;18.90;27.20
8459;DHT22;4266;48.816;9.154;2023-04-06T13:32:43;18.80;26.80
8459;DHT22;4266;48.816;9.154;2023-04-06T13:35:09;18.70;27.00
8459;DHT22;4266;48.816;9.154;2023-04-06T13:37:34;18.30;26.80
8459;DHT22;4266;48.816;9.154;2023-04-06T13:40:01;17.90;26.70
8459;DHT22;4266;48.816;9.154;2023-04-06T13:42:28;18.00;27.10
8459;DHT22;4266;48.816;9.154;2023-04-06T13:44:53;17.90;27.10
8459;DHT22;4266;48.816;9.154;2023-04-06T13:47:19;17.60;26.90
8459;DHT22;4266;48.816;9.154;2023-04-06T13:49:45;17.60;27.10
8459;DHT22;4266;48.816;9.154;2023-04-06T13:52:10;17.50;26.90
8459;DHT22;4266;48.816;9.154;2023-04-06T13:54:37;17.40;27.00
8459;DHT22;4266;48.816;9.154;2023-04-06T13:57:03;17.40;26.90
8459;DHT22;4266;48.816;9.154;2023-04-06T13:59:32;17.30;27.20
8459;DHT22;4266;48.816;9.154;2023-04-06T14:01:57;17.20;27.10
8459;DHT22;4266;48.816;9.154;2023-04-06T14:04:23;17.40;27.00
8459;DHT22;4266;48.816;9.154;2023-04-06T14:06:49;17.00;27.40
8459;DHT22;4266;48.816;9.154;2023-04-06T14:09:15;17.30;26.90
8459;DHT22;4266;48.816;9.154;2023-04-06T14:11:41;17.30;26.80
8459;DHT22;4266;48.816;9.154;2023-04-06T14:14:07;16.70;26.80
8459;DHT22;4266;48.816;9.154;2023-04-06T14:16:32;16.80;27.10
8459;DHT22;4266;48.816;9.154;2023-04-06T14:18:59;16.00;26.80
8459;DHT22;4266;48.816;9.154;2023-04-06T14:21:24;16.00;26.80
8459;DHT22;4266;48.816;9.154;2023-04-06T14:23:50;16.00;27.20
8459;DHT22;4266;48.816;9.154;2023-04-06T14:26:16;16.20;27.00
8459;DHT22;4266;48.816;9.154;2023-04-06T14:28:42;16.20;27.40
8459;DHT22;4266;48.816;9.154;2023-04-06T14:31:10;16.30;27.20
8459;DHT22;4266;48.816;9.154;2023-04-06T14:33:35;15.90;27.20
8459;DHT22;4266;48.816;9.154;2023-04-06T14:36:04;16.00;27.80
8459;DHT22;4266;48.816;9.154;2023-04-06T14:38:31;16.00;27.60
8459;DHT22;4266;48.816;9.154;2023-04-06T14:40:57;16.20;27.60
8459;DHT22;4266;48.816;9.154;2023-04-06T14:43:22;16.10;27.40
8459;DHT22;4266;48.816;9.154;2023-04-06T14:45:48;15.80;27.50
8459;DHT22;4266;48.816;9.154;2023-04-06T14:48:14;15.70;27.50
8459;DHT22;4266;48.816;9.154;2023-04-06T14:50:40;15.70;27.50
8459;DHT22;4266;48.816;9.154;2023-04-06T14:53:06;15.60;27.50
8459;DHT22;4266;48.816;9.154;2023-04-06T14:55:31;15.70;27.70
8459;DHT22;4266;48.816;9.154;2023-04-06T14:57:58;15.60;27.20
8459;DHT22;4266;48.816;9.154;2023-04-06T15:00:24;15.50;26.80
8459;DHT22;4266;48.816;9.154;2023-04-06T15:02:50;15.50;26.80
8459;DHT22;4266;48.816;9.154;2023-04-06T15:05:16;15.50;27.60
8459;DHT22;4266;48.816;9.154;2023-04-06T15:07:42;15.50;27.70
8459;DHT22;4266;48.816;9.154;2023-04-06T15:10:09;15.40;27.60
8459;DHT22;4266;48.816;9.154;2023-04-06T15:12:35;15.40;28.00
8459;DHT22;4266;48.816;9.154;2023-04-06T15:15:01;15.10;27.50
8459;DHT22;4266;48.816;9.154;2023-04-06T15:17:27;15.10;27.50
8459;DHT22;4266;48.816;9.154;2023-04-06T15:19:53;14.90;27.30
8459;DHT22;4266;48.816;9.154;2023-04-06T15:22:19;15.00;27.70
8459;DHT22;4266;48.816;9.154;2023-04-06T15:24:45;15.00;27.70
8459;DHT22;4266;48.816;9.154;2023-04-06T15:27:11;15.00;27.40
8459;DHT22;4266;48.816;9.154;2023-04-06T15:29:36;14.90;27.70
8459;DHT22;4266;48.816;9.154;2023-04-06T15:32:02;15.00;27.80
8459;DHT22;4266;48.816;9.154;2023-04-06T15:34:30;15.00;27.90
8459;DHT22;4266;48.816;9.154;2023-04-06T15:36:53;15.00;27.60
8459;DHT22;4266;48.816;9.154;2023-04-06T15:39:20;15.00;27.50
8459;DHT22;4266;48.816;9.154;2023-04-06T15:41:45;15.00;27.50
8459;DHT22;4266;48.816;9.154;2023-04-06T15:44:12;14.80;28.10
8459;DHT22;4266;48.816;9.154;2023-04-06T15:46:38;14.80;28.10
8459;DHT22;4266;48.816;9.154;2023-04-06T15:49:04;14.50;27.30
8459;DHT22;4266;48.816;9.154;2023-04-06T15:51:29;14.40;27.70
8459;DHT22;4266;48.816;9.154;2023-04-06T15:53:55;14.50;27.80
8459;DHT22;4266;48.816;9.154;2023-04-06T15:56:21;14.60;28.00
8459;DHT22;4266;48.816;9.154;2023-04-06T15:58:48;14.50;28.10
8459;DHT22;4266;48.816;9.154;2023-04-06T16:01:14;14.50;28.10